Time;durP1;ratioP1;P1;durP2;ratioP2;P2;SDS_P1;SDS_P2;PMS_P1;PMS_P2;Temp;Humidity;BMP_temperature;BMP_pressure;BME280_temperature;BME280_humidity;BME280_pressure;Samples;Min_cycle;Max_cycle;Signal;HPM_P1;HPM_P2
2021/03/22 00:01:11;;;;;;;8.00;7.18;;;11.00;61.80;;;;;;5028487;28;20117;-64
2021/03/22 00:03:37;;;;;;;11.00;8.00;;;11.00;61.90;;;;;;5028005;28;20022;-63
2021/03/22 00:06:03;;;;;;;9.30;7.20;;;10.90;61.80;;;;;;5027677;28;20038;-63
2021/03/22 00:08:30;;;;;;;10.23;7.75;;;10.90;61.90;;;;;;5027591;28;20032;-64
2021/03/22 00:10:57;;;;;;;10.77;7.78;;;10.80;61.80;;;;;;5027853;28;20073;-63
2021/03/22 00:13:25;;;;;;;9.15;7.53;;;10.80;61.90;;;;;;5027605;28;20030;-62
2021/03/22 00:15:53;;;;;;;8.68;7.25;;;10.70;61.70;;;;;;5028433;28;20036;-63
2021/03/22 00:18:24;;;;;;;8.48;7.50;;;10.60;61.60;;;;;;5028090;28;20032;-63
2021/03/22 00:20:50;;;;;;;11.20;7.20;;;10.60;61.70;;;;;;5028178;28;20076;-63
2021/03/22 00:23:16;;;;;;;8.70;7.80;;;10.60;61.80;;;;;;5027651;28;20124;-63
2021/03/22 00:25:42;;;;;;;8.05;7.03;;;10.50;61.70;;;;;;5026648;28;20440;-63
2021/03/22 00:28:15;;;;;;;11.05;7.40;;;10.50;61.70;;;;;;5028216;28;20091;-62
2021/03/22 00:30:43;;;;;;;9.00;7.63;;;10.40;61.70;;;;;;5028030;28;20044;-63
2021/03/22 00:33:11;;;;;;;7.95;6.97;;;10.30;61.60;;;;;;5027491;28;20542;-63
2021/03/22 00:35:37;;;;;;;10.50;7.68;;;10.30;61.70;;;;;;5028184;28;20033;-63
2021/03/22 00:38:04;;;;;;;10.07;7.88;;;10.30;61.70;;;;;;5027493;28;20059;-63
2021/03/22 00:40:34;;;;;;;8.25;6.88;;;10.20;61.70;;;;;;5027767;28;20049;-63
2021/03/22 00:43:00;;;;;;;11.60;8.60;;;10.20;61.70;;;;;;5027780;28;20033;-63
2021/03/22 00:45:27;;;;;;;9.18;7.72;;;10.10;61.60;;;;;;5027674;28;20043;-63
2021/03/22 00:47:54;;;;;;;9.90;7.65;;;10.10;61.70;;;;;;5026083;28;20041;-63
2021/03/22 00:50:35;;;;;;;8.25;7.43;;;10.10;61.80;;;;;;5027267;28;20033;-63
2021/03/22 00:53:03;;;;;;;8.32;7.45;;;10.00;61.80;;;;;;5027534;28;20091;-63
2021/03/22 00:55:29;;;;;;;8.27;7.40;;;10.00;61.80;;;;;;5027623;28;20234;-63
2021/03/22 00:57:55;;;;;;;9.52;7.72;;;10.00;61.80;;;;;;5027416;28;20169;-62
2021/03/22 01:00:28;;;;;;;8.15;7.15;;;9.90;61.60;;;;;;5027170;28;20270;-62
2021/03/22 01:02:55;;;;;;;12.45;8.35;;;9.90;61.80;;;;;;5026759;28;20025;-62
2021/03/22 01:05:23;;;;;;;10.15;7.60;;;9.80;61.60;;;;;;5027252;28;20068;-63
2021/03/22 01:07:49;;;;;;;14.10;8.43;;;9.80;61.70;;;;;;5027549;28;20030;-62
2021/03/22 01:10:24;;;;;;;9.88;8.43;;;9.70;61.60;;;;;;5027049;28;20132;-62
2021/03/22 01:12:51;;;;;;;8.18;7.35;;;9.70;61.70;;;;;;5027062;28;20124;-63
2021/03/22 01:15:17;;;;;;;9.95;7.72;;;9.60;61.50;;;;;;5027518;28;20029;-63
2021/03/22 01:17:43;;;;;;;8.35;6.88;;;9.60;61.60;;;;;;5026646;28;20044;-63
2021/03/22 01:20:13;;;;;;;12.60;8.05;;;9.50;61.50;;;;;;5026682;28;20067;-63
2021/03/22 01:22:39;;;;;;;10.65;6.97;;;9.50;61.60;;;;;;5026509;28;20034;-63
2021/03/22 01:25:07;;;;;;;9.07;8.07;;;9.40;61.40;;;;;;5026542;28;20062;-63
2021/03/22 01:27:34;;;;;;;10.30;7.75;;;9.40;61.50;;;;;;5025450;28;20083;-63
2021/03/22 01:30:00;;;;;;;9.88;7.35;;;9.40;61.60;;;;;;5026624;28;20491;-63
2021/03/22 01:32:26;;;;;;;10.88;8.13;;;9.30;61.50;;;;;;5027077;28;20084;-64
2021/03/22 01:34:52;;;;;;;9.80;7.85;;;9.30;61.60;;;;;;5026199;28;20037;-63
2021/03/22 01:37:18;;;;;;;11.30;8.00;;;9.20;61.50;;;;;;5026769;28;20040;-63
2021/03/22 01:39:44;;;;;;;9.07;8.27;;;9.20;61.50;;;;;;5026494;28;20037;-63
2021/03/22 01:42:26;;;;;;;8.93;7.63;;;9.20;61.60;;;;;;5026372;28;20029;-63
2021/03/22 01:45:10;;;;;;;8.68;7.47;;;9.10;61.50;;;;;;5025048;28;20496;-64
2021/03/22 01:47:37;;;;;;;8.30;6.82;;;9.10;61.50;;;;;;5026376;28;20038;-64
2021/03/22 01:50:12;;;;;;;11.00;7.40;;;9.10;61.50;;;;;;5026286;28;20484;-64
2021/03/22 01:52:42;;;;;;;10.57;7.75;;;9.00;61.40;;;;;;5026087;28;20025;-64
2021/03/22 01:55:12;;;;;;;9.40;8.05;;;9.00;61.40;;;;;;5027126;28;20037;-63
2021/03/22 01:57:41;;;;;;;8.85;7.47;;;8.90;61.30;;;;;;5026509;28;20063;-62
2021/03/22 02:00:20;;;;;;;7.57;6.78;;;8.90;61.40;;;;;;5026388;28;20091;-63
2021/03/22 02:02:48;;;;;;;10.43;8.13;;;8.80;61.30;;;;;;5025826;28;20053;-63
2021/03/22 02:05:18;;;;;;;7.88;6.95;;;8.80;61.30;;;;;;5026511;28;20500;-63
2021/03/22 02:07:48;;;;;;;9.40;7.50;;;8.70;61.20;;;;;;5026506;28;20039;-63
2021/03/22 02:10:15;;;;;;;8.80;7.10;;;8.70;61.30;;;;;;5025701;28;20480;-64
2021/03/22 02:12:41;;;;;;;8.48;7.32;;;8.70;61.30;;;;;;5026159;28;20359;-64
2021/03/22 02:15:07;;;;;;;10.48;8.30;;;8.60;61.20;;;;;;5026071;28;20053;-63
2021/03/22 02:18:05;;;;;;;9.27;7.18;;;8.60;61.30;;;;;;5026154;28;20032;-63
2021/03/22 02:21:09;;;;;;;9.30;7.68;;;8.60;61.40;;;;;;5025650;28;20179;-63
2021/03/22 02:23:53;;;;;;;12.35;7.43;;;8.60;61.40;;;;;;5025447;28;20045;-64
2021/03/22 02:27:03;;;;;;;8.98;7.85;;;8.50;61.20;;;;;;5025824;28;20033;-63
2021/03/22 02:30:02;;;;;;;10.43;7.72;;;8.40;61.20;;;;;;4992282;28;20073;-63
2021/03/22 02:32:36;;;;;;;12.98;7.97;;;8.40;61.20;;;;;;5032729;23;20422;-69
2021/03/22 02:35:20;;;;;;;11.95;7.85;;;8.30;61.00;;;;;;4991780;28;20480;-68
2021/03/22 02:37:52;;;;;;;9.23;7.43;;;8.30;61.10;;;;;;5008427;28;20033;-69
2021/03/22 02:40:50;;;;;;;13.18;7.32;;;8.30;61.10;;;;;;4973976;28;20026;-69
2021/03/22 02:43:16;;;;;;;7.55;6.75;;;8.20;61.10;;;;;;5006421;28;20099;-69
2021/03/22 02:45:43;;;;;;;8.55;7.28;;;8.20;61.10;;;;;;5018733;23;20052;-81
2021/03/22 02:48:19;;;;;;;9.40;7.93;;;8.20;61.10;;;;;;5021935;28;20489;-79
2021/03/22 02:50:46;;;;;;;11.10;8.43;;;8.10;61.10;;;;;;5011378;28;20123;-78
2021/03/22 02:53:21;;;;;;;12.45;8.15;;;8.10;61.10;;;;;;5011610;28;20040;-80
2021/03/22 02:55:57;;;;;;;9.60;7.60;;;8.00;61.00;;;;;;5010227;28;20034;-81
2021/03/22 02:58:42;;;;;;;8.77;7.25;;;8.00;61.00;;;;;;5010508;28;20033;-80
2021/03/22 03:01:11;;;;;;;10.00;7.13;;;8.00;61.10;;;;;;5010319;28;20068;-79
2021/03/22 03:03:38;;;;;;;9.40;7.85;;;8.00;61.20;;;;;;5011136;28;20033;-81
2021/03/22 03:06:04;;;;;;;9.63;7.80;;;7.90;61.00;;;;;;5009817;28;20409;-79
2021/03/22 03:08:37;;;;;;;9.40;7.35;;;7.90;61.10;;;;;;5022316;28;20552;-80
2021/03/22 03:11:04;;;;;;;8.90;7.65;;;7.90;61.20;;;;;;5011213;28;20044;-79
2021/03/22 03:13:30;;;;;;;7.45;6.70;;;7.80;61.00;;;;;;5011747;28;20113;-81
2021/03/22 03:15:56;;;;;;;10.68;6.97;;;7.80;61.10;;;;;;5011077;28;20360;-80
2021/03/22 03:18:22;;;;;;;8.25;6.75;;;7.80;61.20;;;;;;5010873;28;20080;-80
2021/03/22 03:20:48;;;;;;;7.85;7.00;;;7.70;61.00;;;;;;5009639;28;20096;-80
2021/03/22 03:23:14;;;;;;;7.50;6.70;;;7.70;61.00;;;;;;5010202;28;20036;-80
2021/03/22 03:25:40;;;;;;;7.65;6.47;;;7.70;61.00;;;;;;5009879;28;20092;-81
2021/03/22 03:28:08;;;;;;;9.48;7.68;;;7.70;61.10;;;;;;5011316;28;20026;-80
2021/03/22 03:30:38;;;;;;;8.68;7.00;;;7.60;61.00;;;;;;5011132;28;20065;-80
2021/03/22 03:33:06;;;;;;;7.38;6.47;;;7.60;61.00;;;;;;5011196;28;20076;-82
2021/03/22 03:35:36;;;;;;;10.85;6.97;;;7.60;61.10;;;;;;5011047;28;20088;-81
2021/03/22 03:38:04;;;;;;;7.47;6.55;;;7.60;61.10;;;;;;5009770;28;20377;-80
2021/03/22 03:40:36;;;;;;;7.72;6.82;;;7.50;61.00;;;;;;5010253;28;20108;-80
2021/03/22 03:43:02;;;;;;;13.30;7.10;;;7.50;61.10;;;;;;5013355;28;20125;-80
2021/03/22 03:45:32;;;;;;;8.27;6.30;;;7.40;60.90;;;;;;5014585;28;20436;-79
2021/03/22 03:47:58;;;;;;;7.97;5.88;;;7.40;60.90;;;;;;5013125;28;20046;-80
2021/03/22 03:50:27;;;;;;;10.32;6.40;;;7.40;61.00;;;;;;4996771;28;20398;-80
2021/03/22 03:52:53;;;;;;;7.90;5.75;;;7.30;60.80;;;;;;5013123;28;20041;-79
2021/03/22 03:55:22;;;;;;;6.57;5.65;;;7.30;60.80;;;;;;5013438;28;20083;-80
2021/03/22 03:57:51;;;;;;;7.85;6.25;;;7.30;60.90;;;;;;5015716;28;20069;-80
2021/03/22 04:00:35;;;;;;;8.05;6.60;;;7.20;60.80;;;;;;5014111;28;20030;-80
2021/03/22 04:03:21;;;;;;;8.27;7.38;;;7.20;60.90;;;;;;5013270;28;20296;-80
2021/03/22 04:06:11;;;;;;;7.93;6.40;;;7.20;60.90;;;;;;5013918;28;20050;-80
2021/03/22 04:08:43;;;;;;;6.80;5.30;;;7.10;60.80;;;;;;5002659;28;20034;-81
2021/03/22 04:11:12;;;;;;;9.40;6.72;;;7.10;60.80;;;;;;5013720;28;20041;-79
2021/03/22 04:13:39;;;;;;;7.65;6.05;;;7.10;60.80;;;;;;5013187;28;20270;-80
2021/03/22 04:16:08;;;;;;;8.30;6.93;;;7.10;60.90;;;;;;5012977;28;20495;-79
2021/03/22 04:18:36;;;;;;;7.45;6.07;;;7.10;60.90;;;;;;5012637;28;20025;-80
2021/03/22 04:21:04;;;;;;;8.38;6.28;;;7.00;60.80;;;;;;5013578;28;20034;-80
2021/03/22 04:23:30;;;;;;;10.43;6.30;;;7.00;60.80;;;;;;5012421;28;20033;-82
2021/03/22 04:25:56;;;;;;;7.30;6.07;;;7.00;60.90;;;;;;5012609;28;20568;-82
2021/03/22 04:28:22;;;;;;;7.60;5.70;;;7.00;60.90;;;;;;5014361;28;20315;-80
2021/03/22 04:30:48;;;;;;;5.63;5.13;;;6.90;60.80;;;;;;5013873;28;20236;-79
2021/03/22 04:33:14;;;;;;;8.35;5.80;;;6.90;60.90;;;;;;5013736;28;20477;-80
2021/03/22 04:35:41;;;;;;;8.93;6.88;;;6.90;61.00;;;;;;5013733;28;20040;-79
2021/03/22 04:38:07;;;;;;;9.73;5.68;;;6.90;61.00;;;;;;5013599;28;20120;-80
2021/03/22 04:40:33;;;;;;;11.45;5.80;;;6.90;61.00;;;;;;4996208;28;20180;-79
2021/03/22 04:42:59;;;;;;;7.30;5.97;;;6.90;61.10;;;;;;5012259;28;20030;-80
2021/03/22 04:45:29;;;;;;;8.05;5.30;;;6.90;61.10;;;;;;5013205;28;20038;-79
2021/03/22 04:47:55;;;;;;;5.97;5.00;;;6.90;61.20;;;;;;5011964;28;20440;-79
2021/03/22 04:50:23;;;;;;;9.95;5.57;;;6.90;61.20;;;;;;5012352;28;20029;-79
2021/03/22 04:52:49;;;;;;;7.63;5.35;;;6.90;61.20;;;;;;5012075;28;20022;-79
2021/03/22 04:55:17;;;;;;;5.78;5.18;;;6.90;61.20;;;;;;5012286;28;20120;-79
2021/03/22 04:57:43;;;;;;;7.72;6.57;;;6.90;61.30;;;;;;5013352;28;20393;-80
2021/03/22 05:00:13;;;;;;;7.45;5.30;;;6.90;61.30;;;;;;5013727;28;20033;-80
2021/03/22 05:02:39;;;;;;;5.45;4.78;;;6.90;61.30;;;;;;5013043;28;20489;-79
2021/03/22 05:05:08;;;;;;;7.30;5.35;;;6.90;61.30;;;;;;5013302;28;20129;-79
2021/03/22 05:07:35;;;;;;;6.07;5.05;;;6.90;61.30;;;;;;5012815;28;20046;-79
2021/03/22 05:10:03;;;;;;;5.65;5.15;;;6.90;61.30;;;;;;5012855;28;20425;-80
2021/03/22 05:12:28;;;;;;;6.70;5.10;;;6.90;61.30;;;;;;4995253;28;20389;-80
2021/03/22 05:14:54;;;;;;;6.47;4.53;;;6.90;61.40;;;;;;5013076;28;20034;-79
2021/03/22 05:17:20;;;;;;;5.93;4.72;;;6.80;61.20;;;;;;5012692;28;20037;-80
2021/03/22 05:19:46;;;;;;;7.30;5.07;;;6.90;61.40;;;;;;5012452;28;20446;-79
2021/03/22 05:22:12;;;;;;;6.50;4.68;;;6.90;61.40;;;;;;5012785;28;20481;-79
2021/03/22 05:24:38;;;;;;;8.93;5.18;;;6.90;61.40;;;;;;5011378;28;20033;-79
2021/03/22 05:27:05;;;;;;;5.20;4.70;;;6.90;61.40;;;;;;5012220;28;20124;-79
2021/03/22 05:29:31;;;;;;;5.82;5.10;;;6.80;61.30;;;;;;5012142;28;20113;-79
2021/03/22 05:31:57;;;;;;;6.05;5.40;;;6.90;61.50;;;;;;5012682;28;20249;-80
2021/03/22 05:34:23;;;;;;;8.40;5.15;;;6.90;61.50;;;;;;5012218;28;20407;-79
2021/03/22 05:36:50;;;;;;;7.60;4.88;;;6.90;61.50;;;;;;5011269;28;20430;-80
2021/03/22 05:39:17;;;;;;;8.60;5.22;;;6.90;61.50;;;;;;5012602;28;20029;-78
2021/03/22 05:41:49;;;;;;;6.13;4.90;;;6.90;61.50;;;;;;5010790;28;20033;-80
2021/03/22 05:44:55;;;;;;;5.78;4.32;;;6.90;61.60;;;;;;5011237;28;20068;-81
2021/03/22 05:47:25;;;;;;;5.35;4.50;;;6.90;61.60;;;;;;4990780;28;20049;-81
2021/03/22 05:50:06;;;;;;;7.00;4.80;;;6.90;61.50;;;;;;5004559;28;20030;-80
2021/03/22 05:53:03;;;;;;;5.32;4.38;;;6.90;61.60;;;;;;5002646;28;20556;-79
2021/03/22 05:55:39;;;;;;;5.60;4.18;;;6.90;61.50;;;;;;4989684;28;20031;-79
2021/03/22 05:58:08;;;;;;;5.03;4.47;;;7.00;61.70;;;;;;5007514;28;20415;-80
2021/03/22 06:00:50;;;;;;;6.07;4.22;;;7.00;61.60;;;;;;5007591;28;20044;-80
2021/03/22 06:03:30;;;;;;;6.03;4.38;;;7.00;61.60;;;;;;4989786;28;20547;-81
2021/03/22 06:06:17;;;;;;;5.22;4.30;;;7.00;61.60;;;;;;5006738;28;20096;-80
2021/03/22 06:08:55;;;;;;;7.95;4.18;;;7.00;61.60;;;;;;5006299;28;20040;-80
2021/03/22 06:11:30;;;;;;;6.90;4.63;;;7.00;61.50;;;;;;4989789;28;20057;-81
2021/03/22 06:14:09;;;;;;;7.63;4.65;;;7.00;61.50;;;;;;5007294;28;20093;-80
2021/03/22 06:16:38;;;;;;;6.22;4.57;;;7.00;61.60;;;;;;4989918;28;20287;-81
2021/03/22 06:19:08;;;;;;;8.07;4.22;;;7.00;61.50;;;;;;5001303;28;20486;-79
2021/03/22 06:21:40;;;;;;;7.13;4.43;;;7.00;61.50;;;;;;4991364;28;20417;-80
2021/03/22 06:24:17;;;;;;;4.82;4.22;;;7.10;61.70;;;;;;4998070;28;20040;-83
2021/03/22 06:26:49;;;;;;;4.88;4.22;;;7.10;61.80;;;;;;4992357;28;20109;-83
2021/03/22 06:29:34;;;;;;;4.57;4.18;;;7.10;61.70;;;;;;5015830;28;20397;-84
2021/03/22 06:32:04;;;;;;;4.93;4.05;;;7.10;61.70;;;;;;5006205;28;20033;-81
2021/03/22 06:34:42;;;;;;;6.28;4.40;;;7.10;61.60;;;;;;5006857;28;20044;-80
2021/03/22 06:37:11;;;;;;;9.07;4.53;;;7.10;61.70;;;;;;5006962;28;20354;-83
2021/03/22 06:39:37;;;;;;;4.30;3.90;;;7.10;61.60;;;;;;5006285;28;20052;-81
2021/03/22 06:42:39;;;;;;;4.70;4.20;;;7.20;61.70;;;;;;5005970;28;20485;-82
2021/03/22 06:45:34;;;;;;;4.15;3.75;;;7.20;61.80;;;;;;4965083;28;20042;-83
2021/03/22 06:48:18;;;;;;;5.07;3.58;;;7.20;61.70;;;;;;5005143;28;20054;-84
2021/03/22 06:50:46;;;;;;;6.22;4.65;;;7.30;61.90;;;;;;4988904;28;20034;-81
2021/03/22 06:53:37;;;;;;;5.03;4.13;;;7.30;61.80;;;;;;5005578;28;20092;-82
2021/03/22 06:56:22;;;;;;;6.32;3.30;;;7.30;61.90;;;;;;5006873;28;20030;-83
2021/03/22 06:58:51;;;;;;;4.78;3.70;;;7.40;62.00;;;;;;5005682;28;20038;-86
2021/03/22 07:01:25;;;;;;;6.15;4.10;;;7.40;61.90;;;;;;4989374;28;20048;-84
2021/03/22 07:03:52;;;;;;;5.82;3.90;;;7.50;62.00;;;;;;4989256;28;20068;-82
2021/03/22 07:06:24;;;;;;;4.78;3.85;;;7.50;61.90;;;;;;5006583;28;20048;-82
2021/03/22 07:08:52;;;;;;;7.28;4.10;;;7.60;62.10;;;;;;5005263;28;20109;-83
2021/03/22 07:11:24;;;;;;;4.70;4.13;;;7.60;62.00;;;;;;5004977;28;20030;-83
2021/03/22 07:13:59;;;;;;;5.97;4.75;;;7.60;62.00;;;;;;5005597;28;20469;-81
2021/03/22 07:16:31;;;;;;;4.38;3.85;;;7.70;62.10;;;;;;5008978;28;20265;-84
2021/03/22 07:19:07;;;;;;;6.13;3.95;;;7.80;62.20;;;;;;5003184;28;20037;-87
2021/03/22 07:21:44;;;;;;;4.80;3.88;;;7.80;62.30;;;;;;4997243;28;20034;-85
2021/03/22 07:24:25;;;;;;;7.55;4.20;;;7.90;62.50;;;;;;5003284;28;20100;-89
2021/03/22 07:27:19;;;;;;;5.07;4.20;;;8.00;62.90;;;;;;4989490;28;20034;-88
2021/03/22 07:30:12;;;;;;;5.15;3.97;;;8.10;63.00;;;;;;5002222;28;20030;-85
2021/03/22 07:32:53;;;;;;;5.45;3.92;;;8.20;63.00;;;;;;5011999;28;20054;-82
2021/03/22 07:35:22;;;;;;;5.75;3.92;;;8.30;63.20;;;;;;5014321;28;20105;-80
2021/03/22 07:38:14;;;;;;;7.22;4.10;;;8.40;63.20;;;;;;5011283;28;20042;-85
2021/03/22 07:41:06;;;;;;;6.97;4.68;;;8.40;63.20;;;;;;4997352;28;20030;-82
2021/03/22 07:44:00;;;;;;;5.03;3.85;;;8.50;63.30;;;;;;5010073;28;20030;-82
2021/03/22 07:47:25;;;;;;;5.20;4.00;;;8.60;63.40;;;;;;5009292;28;20409;-82
2021/03/22 07:50:09;;;;;;;5.57;3.97;;;8.70;63.50;;;;;;4926656;29;20415;-82
2021/03/22 07:53:06;;;;;;;7.00;3.88;;;8.80;63.50;;;;;;4934216;29;20541;-82
2021/03/22 07:55:44;;;;;;;4.75;3.67;;;8.90;63.60;;;;;;4992565;28;20112;-81
2021/03/22 07:58:19;;;;;;;5.95;3.97;;;8.90;63.30;;;;;;5009542;28;20041;-81
2021/03/22 08:01:13;;;;;;;5.50;4.60;;;9.00;63.40;;;;;;5008543;28;20145;-83
2021/03/22 08:04:22;;;;;;;4.95;3.88;;;9.10;63.50;;;;;;4995379;28;20052;-81
2021/03/22 08:07:13;;;;;;;3.80;3.38;;;9.20;63.60;;;;;;4991901;28;20049;-85
2021/03/22 08:09:51;;;;;;;5.50;3.78;;;9.30;63.60;;;;;;5008389;28;20034;-82
2021/03/22 08:12:39;;;;;;;5.53;3.78;;;9.40;63.60;;;;;;5007790;28;20113;-83
2021/03/22 08:15:41;;;;;;;7.10;4.40;;;9.50;63.70;;;;;;5009524;28;20034;-83
2021/03/22 08:18:24;;;;;;;5.53;4.25;;;9.60;63.70;;;;;;4998202;28;20511;-92
2021/03/22 08:21:04;;;;;;;5.78;4.57;;;9.60;63.60;;;;;;5009427;28;20034;-81
2021/03/22 08:24:08;;;;;;;7.40;4.15;;;9.70;63.80;;;;;;5009072;28;20045;-81
2021/03/22 08:26:43;;;;;;;4.55;3.80;;;9.80;63.90;;;;;;5008427;28;20133;-81
2021/03/22 08:29:23;;;;;;;4.55;4.15;;;9.90;63.90;;;;;;5006961;28;20119;-81
2021/03/22 08:31:50;;;;;;;5.70;4.60;;;10.00;64.00;;;;;;5009129;28;20026;-82
2021/03/22 08:34:37;;;;;;;6.85;4.55;;;10.10;64.00;;;;;;5007830;28;20026;-81
2021/03/22 08:37:12;;;;;;;6.18;5.15;;;10.10;63.90;;;;;;5008473;28;20048;-82
2021/03/22 08:39:58;;;;;;;6.03;3.83;;;10.20;63.90;;;;;;5008038;28;20042;-84
2021/03/22 08:42:46;;;;;;;9.50;5.15;;;10.30;64.00;;;;;;5009744;28;20072;-84
2021/03/22 08:45:18;;;;;;;8.32;4.65;;;10.40;64.10;;;;;;5009134;28;20077;-81
2021/03/22 08:48:09;;;;;;;4.70;4.22;;;10.40;63.90;;;;;;5008960;28;20050;-84
2021/03/22 08:50:38;;;;;;;6.20;4.75;;;10.50;64.00;;;;;;5008786;28;20795;-85
2021/03/22 08:53:10;;;;;;;5.50;4.95;;;10.60;64.00;;;;;;5007900;28;20056;-84
2021/03/22 08:55:39;;;;;;;5.40;4.75;;;10.60;63.90;;;;;;5007980;28;20049;-83
2021/03/22 08:58:16;;;;;;;10.25;5.50;;;10.70;64.00;;;;;;5007571;28;20449;-84
2021/03/22 09:00:45;;;;;;;5.35;4.85;;;10.70;63.90;;;;;;5009179;28;20080;-83
2021/03/22 09:03:18;;;;;;;8.40;5.45;;;10.80;64.00;;;;;;5007558;28;20050;-84
2021/03/22 09:06:05;;;;;;;8.25;6.38;;;10.80;63.90;;;;;;5007164;28;20054;-83
2021/03/22 09:08:55;;;;;;;5.47;4.82;;;10.90;64.00;;;;;;5006717;28;20378;-85
2021/03/22 09:11:29;;;;;;;6.95;5.85;;;11.00;64.10;;;;;;5002198;28;20281;-85
2021/03/22 09:13:58;;;;;;;;;;;11.00;63.90;;;;;;5008775;28;20136;-84
2021/03/22 09:16:24;;;;;;;9.10;5.93;;;11.10;64.00;;;;;;5007667;28;19917;-84
2021/03/22 09:19:12;;;;;;;9.05;5.68;;;11.20;64.00;;;;;;5007231;28;20084;-87
2021/03/22 09:21:43;;;;;;;7.40;5.50;;;11.20;64.00;;;;;;5007498;28;20041;-86
2021/03/22 09:24:41;;;;;;;7.22;5.45;;;11.30;64.10;;;;;;5006947;28;20124;-86
2021/03/22 09:27:16;;;;;;;7.53;5.65;;;11.40;64.10;;;;;;5006823;28;20140;-81
2021/03/22 09:29:50;;;;;;;7.18;6.05;;;11.40;64.00;;;;;;5006839;28;20378;-83
2021/03/22 09:32:32;;;;;;;9.52;6.35;;;11.50;64.20;;;;;;5023528;28;20407;-83
2021/03/22 09:35:17;;;;;;;8.43;6.07;;;11.60;64.20;;;;;;4990522;28;20046;-83
2021/03/22 09:38:22;;;;;;;9.75;7.13;;;11.60;64.10;;;;;;4989735;28;20022;-85
2021/03/22 09:40:52;;;;;;;7.25;6.07;;;11.70;64.60;;;;;;5007066;28;20409;-83
2021/03/22 09:43:18;;;;;;;7.10;6.38;;;11.90;64.30;;;;;;5006581;28;20037;-83
2021/03/22 09:45:54;;;;;;;7.93;5.93;;;11.90;64.10;;;;;;5006967;28;20060;-83
2021/03/22 09:48:28;;;;;;;10.90;6.50;;;12.00;64.10;;;;;;4990632;28;20033;-88
2021/03/22 09:51:00;;;;;;;;;;;12.10;64.20;;;;;;5007272;28;20133;-85
2021/03/22 09:53:48;;;;;;;9.55;7.80;;;12.20;64.20;;;;;;5006879;28;19909;-85
2021/03/22 09:56:35;;;;;;;8.63;6.45;;;12.30;64.20;;;;;;4990795;28;20117;-87
2021/03/22 09:59:34;;;;;;;8.90;6.72;;;12.40;64.20;;;;;;5008443;28;20022;-85
2021/03/22 10:02:29;;;;;;;7.38;6.47;;;12.60;64.40;;;;;;5006790;28;20022;-87
2021/03/22 10:05:29;;;;;;;10.50;6.95;;;12.70;64.40;;;;;;5022939;28;20124;-84
2021/03/22 10:07:58;;;;;;;7.50;6.75;;;12.90;64.60;;;;;;4977454;28;20068;-87
2021/03/22 10:10:38;;;;;;;13.43;6.28;;;13.00;64.50;;;;;;5007838;28;20559;-84
2021/03/22 10:13:21;;;;;;;9.15;6.90;;;13.10;64.50;;;;;;5007290;28;20056;-88
2021/03/22 10:15:56;;;;;;;7.57;6.80;;;13.20;64.40;;;;;;5007053;28;20030;-85
2021/03/22 10:18:31;;;;;;;11.60;7.65;;;13.20;64.20;;;;;;4989896;28;20030;-86
2021/03/22 10:21:12;;;;;;;8.98;7.63;;;13.30;64.30;;;;;;5007338;28;20397;-84
2021/03/22 10:24:20;;;;;;;7.63;6.93;;;13.40;64.30;;;;;;5007359;28;20457;-85
2021/03/22 10:26:55;;;;;;;11.55;7.72;;;13.40;64.20;;;;;;4988598;28;20378;-86
2021/03/22 10:29:21;;;;;;;9.35;7.10;;;13.50;64.20;;;;;;4990220;28;20124;-86
2021/03/22 10:31:56;;;;;;;10.38;7.47;;;13.60;64.30;;;;;;5007903;28;20026;-85
2021/03/22 10:34:44;;;;;;;9.52;7.68;;;13.60;64.20;;;;;;5007077;28;20033;-87
2021/03/22 10:37:17;;;;;;;10.30;7.85;;;13.60;64.10;;;;;;5005806;28;20037;-82
2021/03/22 10:39:47;;;;;;;13.40;8.40;;;13.70;64.20;;;;;;4989339;28;20408;-84
2021/03/22 10:42:35;;;;;;;9.65;7.80;;;13.80;64.50;;;;;;5005228;28;20030;-84
2021/03/22 10:45:14;;;;;;;18.58;12.73;;;13.90;64.70;;;;;;5005213;28;20048;-84
2021/03/22 10:47:40;;;;;;;21.17;15.68;;;14.00;64.30;;;;;;5005606;28;20054;-83
2021/03/22 10:50:15;;;;;;;24.08;15.20;;;14.00;63.40;;;;;;4990454;28;20026;-84
2021/03/22 10:52:41;;;;;;;20.88;14.63;;;14.00;62.90;;;;;;5011392;28;20092;-86
2021/03/22 10:55:27;;;;;;;19.92;13.18;;;14.00;63.00;;;;;;5010289;28;20112;-83
2021/03/22 10:57:55;;;;;;;20.23;13.70;;;14.00;62.90;;;;;;5010389;28;20128;-86
2021/03/22 11:00:41;;;;;;;16.73;12.55;;;14.10;63.10;;;;;;5010882;28;20030;-84
2021/03/22 11:03:08;;;;;;;18.13;12.52;;;14.20;63.00;;;;;;5010141;28;20083;-85
2021/03/22 11:05:38;;;;;;;20.38;13.85;;;14.30;63.00;;;;;;5011582;28;20044;-84
2021/03/22 11:08:08;;;;;;;20.52;12.45;;;14.40;62.90;;;;;;5011670;28;20037;-85
2021/03/22 11:10:36;;;;;;;18.35;13.90;;;14.50;62.90;;;;;;5010103;28;20030;-84
2021/03/22 11:13:03;;;;;;;19.13;13.48;;;14.60;62.80;;;;;;5009932;28;20050;-88
2021/03/22 11:15:36;;;;;;;16.90;14.10;;;14.60;62.70;;;;;;5010022;28;20021;-85
2021/03/22 11:18:05;;;;;;;14.40;12.23;;;14.70;62.60;;;;;;5008669;28;20116;-85
2021/03/22 11:20:32;;;;;;;17.60;12.25;;;14.90;62.90;;;;;;5009455;28;20113;-84
2021/03/22 11:23:25;;;;;;;14.32;11.63;;;14.90;62.70;;;;;;5010634;28;20396;-91
2021/03/22 11:25:57;;;;;;;15.52;12.00;;;15.10;62.80;;;;;;5010131;28;20040;-84
2021/03/22 11:28:30;;;;;;;13.70;10.95;;;15.20;62.80;;;;;;5010202;28;20092;-84
2021/03/22 11:31:00;;;;;;;14.10;11.82;;;15.30;62.70;;;;;;4992971;28;20489;-87
2021/03/22 11:33:34;;;;;;;13.80;11.73;;;15.40;62.60;;;;;;5010625;28;20500;-87
2021/03/22 11:36:11;;;;;;;15.50;12.48;;;15.50;62.50;;;;;;5010172;28;20038;-84
2021/03/22 11:38:53;;;;;;;16.67;11.00;;;15.60;62.50;;;;;;4993235;28;20038;-85
2021/03/22 11:41:41;;;;;;;15.15;12.00;;;15.80;62.60;;;;;;5009223;28;20069;-85
2021/03/22 11:44:16;;;;;;;12.85;10.63;;;15.90;62.60;;;;;;5009223;28;20484;-84
2021/03/22 11:46:45;;;;;;;15.13;11.65;;;15.90;62.40;;;;;;4992658;28;20053;-88
2021/03/22 11:49:30;;;;;;;12.27;10.45;;;15.90;62.30;;;;;;5008593;28;20025;-84
2021/03/22 11:51:59;;;;;;;12.10;10.43;;;15.90;62.10;;;;;;5010653;28;20057;-87
2021/03/22 11:54:25;;;;;;;12.70;9.75;;;15.90;62.10;;;;;;5009822;28;20062;-84
2021/03/22 11:57:03;;;;;;;14.48;10.55;;;15.90;62.20;;;;;;5008937;28;20038;-84
2021/03/22 11:59:30;;;;;;;13.88;10.68;;;15.90;62.10;;;;;;5019676;28;20037;-86
2021/03/22 12:02:04;;;;;;;13.52;10.25;;;15.90;62.10;;;;;;5009439;28;20528;-87
2021/03/22 12:04:32;;;;;;;12.50;9.80;;;15.90;62.10;;;;;;5008074;28;20030;-85
2021/03/22 12:07:05;;;;;;;16.52;10.70;;;15.90;62.00;;;;;;5009215;28;20037;-84
2021/03/22 12:09:33;;;;;;;10.77;9.68;;;15.90;61.80;;;;;;5010109;28;20034;-83
2021/03/22 12:12:02;;;;;;;13.73;9.35;;;15.80;61.60;;;;;;5012476;28;20048;-85
2021/03/22 12:14:28;;;;;;;13.23;10.40;;;15.80;61.60;;;;;;5007381;28;20500;-83
2021/03/22 12:17:02;;;;;;;12.40;9.27;;;15.80;61.60;;;;;;5010199;28;20515;-85
2021/03/22 12:19:35;;;;;;;12.05;9.07;;;15.70;61.30;;;;;;5008621;28;20389;-87
2021/03/22 12:22:01;;;;;;;10.55;9.18;;;15.80;61.60;;;;;;5009255;28;20512;-87
2021/03/22 12:24:27;;;;;;;9.65;8.68;;;15.80;61.60;;;;;;5010459;28;20180;-93
2021/03/22 12:26:53;;;;;;;12.27;9.65;;;15.90;61.60;;;;;;5009839;28;20076;-92
2021/03/22 12:29:18;;;;;;;12.88;8.45;;;15.90;61.50;;;;;;5009399;28;20127;-86
2021/03/22 12:31:47;;;;;;;8.98;8.00;;;16.00;62.10;;;;;;5008350;28;20388;-85
2021/03/22 12:34:22;;;;;;;9.25;7.38;;;16.00;61.40;;;;;;5007683;28;20033;-87
2021/03/22 12:36:52;;;;;;;10.27;7.88;;;16.10;61.40;;;;;;5011854;28;20040;-85
2021/03/22 12:39:30;;;;;;;8.60;7.63;;;16.10;61.30;;;;;;5009309;28;20034;-88
2021/03/22 12:42:09;;;;;;;9.30;8.18;;;16.10;61.20;;;;;;5010136;28;20033;-89
2021/03/22 12:44:36;;;;;;;10.02;8.07;;;16.20;61.30;;;;;;5008856;28;20029;-89
2021/03/22 12:47:03;;;;;;;7.65;6.50;;;16.20;61.20;;;;;;5009241;28;20133;-88
2021/03/22 12:49:30;;;;;;;8.40;7.38;;;16.20;61.10;;;;;;4992945;28;20030;-92
2021/03/22 12:51:55;;;;;;;9.55;7.60;;;16.20;61.00;;;;;;5008712;28;20040;-89
2021/03/22 12:54:22;;;;;;;10.27;7.43;;;16.20;61.00;;;;;;5008813;28;20030;-91
2021/03/22 12:56:48;;;;;;;8.80;7.95;;;16.10;60.90;;;;;;4987305;28;20058;-88
2021/03/22 12:59:31;;;;;;;10.15;7.60;;;16.10;60.90;;;;;;4970665;28;20080;-89
2021/03/22 13:01:59;;;;;;;8.90;7.15;;;16.10;60.90;;;;;;5009428;28;20103;-90
2021/03/22 13:04:27;;;;;;;10.73;6.82;;;16.10;61.00;;;;;;4992394;28;20037;-90
2021/03/22 13:06:53;;;;;;;11.50;7.30;;;16.10;61.00;;;;;;5009011;28;20033;-86
2021/03/22 13:09:19;;;;;;;9.82;7.00;;;16.20;61.20;;;;;;4975220;28;20026;-92
2021/03/22 13:11:45;;;;;;;8.68;6.53;;;16.30;61.30;;;;;;5009524;28;20509;-90
2021/03/22 13:14:16;;;;;;;9.10;7.20;;;16.30;61.20;;;;;;4991115;28;20022;-89
2021/03/22 13:16:43;;;;;;;8.05;7.05;;;16.50;61.40;;;;;;5009241;28;20034;-85
2021/03/22 13:19:09;;;;;;;8.90;6.80;;;16.60;61.40;;;;;;5008670;28;20041;-90
2021/03/22 13:21:37;;;;;;;12.95;7.22;;;16.70;61.40;;;;;;5007672;28;20180;-84
2021/03/22 13:24:03;;;;;;;8.88;7.05;;;16.80;61.40;;;;;;5008446;28;20022;-88